sensor_id;sensor_type;location;lat;lon;timestamp;temperature;humidity
56044;DHT22;41912;51.022;3.664;2023-01-26T00:00:50;2.80;99.90
56044;DHT22;41912;51.022;3.664;2023-01-26T00:03:16;2.80;99.90
56044;DHT22;41912;51.022;3.664;2023-01-26T00:05:42;2.80;99.90
56044;DHT22;41912;51.022;3.664;2023-01-26T00:08:08;2.80;99.90
56044;DHT22;41912;51.022;3.664;2023-01-26T00:10:38;2.90;99.90
56044;DHT22;41912;51.022;3.664;2023-01-26T00:15:35;2.80;99.90
56044;DHT22;41912;51.022;3.664;2023-01-26T00:18:02;2.80;99.90
56044;DHT22;41912;51.022;3.664;2023-01-26T00:20:28;2.80;99.90
56044;DHT22;41912;51.022;3.664;2023-01-26T00:22:54;2.80;99.90
56044;DHT22;41912;51.022;3.664;2023-01-26T00:25:20;2.80;99.90
56044;DHT22;41912;51.022;3.664;2023-01-26T00:27:46;2.80;99.90
56044;DHT22;41912;51.022;3.664;2023-01-26T00:30:12;2.90;99.90
56044;DHT22;41912;51.022;3.664;2023-01-26T00:32:37;2.90;99.90
56044;DHT22;41912;51.022;3.664;2023-01-26T00:35:04;2.90;99.90
56044;DHT22;41912;51.022;3.664;2023-01-26T00:37:30;2.90;99.90
56044;DHT22;41912;51.022;3.664;2023-01-26T00:39:55;2.90;99.90
56044;DHT22;41912;51.022;3.664;2023-01-26T00:42:21;2.90;99.90
56044;DHT22;41912;51.022;3.664;2023-01-26T00:44:49;2.90;99.90
56044;DHT22;41912;51.022;3.664;2023-01-26T00:47:15;3.00;99.90
56044;DHT22;41912;51.022;3.664;2023-01-26T00:49:41;3.00;99.90
56044;DHT22;41912;51.022;3.664;2023-01-26T00:52:07;3.00;99.90
56044;DHT22;41912;51.022;3.664;2023-01-26T00:54:33;3.00;99.90
56044;DHT22;41912;51.022;3.664;2023-01-26T00:56:59;3.00;99.90
56044;DHT22;41912;51.022;3.664;2023-01-26T00:59:25;3.00;99.90
56044;DHT22;41912;51.022;3.664;2023-01-26T01:01:51;3.00;99.90
56044;DHT22;41912;51.022;3.664;2023-01-26T01:04:17;3.10;99.90
56044;DHT22;41912;51.022;3.664;2023-01-26T01:06:43;3.10;99.90
56044;DHT22;41912;51.022;3.664;2023-01-26T01:09:08;3.00;99.90
56044;DHT22;41912;51.022;3.664;2023-01-26T01:11:34;3.00;99.90
56044;DHT22;41912;51.022;3.664;2023-01-26T01:14:00;3.00;99.90
56044;DHT22;41912;51.022;3.664;2023-01-26T01:16:26;3.00;99.90
56044;DHT22;41912;51.022;3.664;2023-01-26T01:18:53;3.00;99.90
56044;DHT22;41912;51.022;3.664;2023-01-26T01:21:19;3.00;99.90
56044;DHT22;41912;51.022;3.664;2023-01-26T01:23:45;3.00;99.90
56044;DHT22;41912;51.022;3.664;2023-01-26T01:26:11;3.00;99.90
56044;DHT22;41912;51.022;3.664;2023-01-26T01:28:37;3.00;99.90
56044;DHT22;41912;51.022;3.664;2023-01-26T01:31:07;3.00;99.90
56044;DHT22;41912;51.022;3.664;2023-01-26T01:33:34;3.10;99.90
56044;DHT22;41912;51.022;3.664;2023-01-26T01:36:02;3.10;99.90
56044;DHT22;41912;51.022;3.664;2023-01-26T01:38:28;3.10;99.90
56044;DHT22;41912;51.022;3.664;2023-01-26T01:40:54;3.10;99.90
56044;DHT22;41912;51.022;3.664;2023-01-26T01:43:20;3.10;99.90
56044;DHT22;41912;51.022;3.664;2023-01-26T01:45:49;3.10;99.90
56044;DHT22;41912;51.022;3.664;2023-01-26T01:48:37;3.10;99.90
56044;DHT22;41912;51.022;3.664;2023-01-26T01:54:08;3.10;99.90
56044;DHT22;41912;51.022;3.664;2023-01-26T01:56:35;3.10;99.90
56044;DHT22;41912;51.022;3.664;2023-01-26T01:59:03;3.10;99.90
56044;DHT22;41912;51.022;3.664;2023-01-26T02:01:31;3.10;99.90
56044;DHT22;41912;51.022;3.664;2023-01-26T02:04:01;3.20;99.90
56044;DHT22;41912;51.022;3.664;2023-01-26T02:06:47;3.20;99.90
56044;DHT22;41912;51.022;3.664;2023-01-26T02:09:13;3.10;99.90
56044;DHT22;41912;51.022;3.664;2023-01-26T02:12:01;3.00;99.90
56044;DHT22;41912;51.022;3.664;2023-01-26T02:14:28;3.00;99.90
56044;DHT22;41912;51.022;3.664;2023-01-26T02:16:54;3.00;99.90
56044;DHT22;41912;51.022;3.664;2023-01-26T02:24:50;3.10;99.90
56044;DHT22;41912;51.022;3.664;2023-01-26T02:27:16;3.10;99.90
56044;DHT22;41912;51.022;3.664;2023-01-26T02:29:42;3.10;99.90
56044;DHT22;41912;51.022;3.664;2023-01-26T02:32:07;3.10;99.90
56044;DHT22;41912;51.022;3.664;2023-01-26T02:34:33;3.10;99.90
56044;DHT22;41912;51.022;3.664;2023-01-26T02:36:59;3.10;99.90
56044;DHT22;41912;51.022;3.664;2023-01-26T02:42:14;3.10;99.90
56044;DHT22;41912;51.022;3.664;2023-01-26T02:44:58;3.10;99.90
56044;DHT22;41912;51.022;3.664;2023-01-26T02:47:23;3.10;99.90
56044;DHT22;41912;51.022;3.664;2023-01-26T02:49:49;3.20;99.90
56044;DHT22;41912;51.022;3.664;2023-01-26T02:52:17;3.20;99.90
56044;DHT22;41912;51.022;3.664;2023-01-26T02:54:44;3.20;99.90
56044;DHT22;41912;51.022;3.664;2023-01-26T02:57:28;3.20;99.90
56044;DHT22;41912;51.022;3.664;2023-01-26T02:59:54;3.20;99.90
56044;DHT22;41912;51.022;3.664;2023-01-26T03:02:20;3.30;99.90
56044;DHT22;41912;51.022;3.664;2023-01-26T03:04:45;3.30;99.90
56044;DHT22;41912;51.022;3.664;2023-01-26T03:07:11;3.30;99.90
56044;DHT22;41912;51.022;3.664;2023-01-26T03:09:37;3.30;99.90
56044;DHT22;41912;51.022;3.664;2023-01-26T03:12:03;3.30;99.90
56044;DHT22;41912;51.022;3.664;2023-01-26T03:14:28;3.30;99.90
56044;DHT22;41912;51.022;3.664;2023-01-26T03:16:54;3.30;99.90
56044;DHT22;41912;51.022;3.664;2023-01-26T03:19:20;3.30;99.90
56044;DHT22;41912;51.022;3.664;2023-01-26T03:22:04;3.30;99.90
56044;DHT22;41912;51.022;3.664;2023-01-26T03:24:49;3.20;99.90
56044;DHT22;41912;51.022;3.664;2023-01-26T03:27:40;3.20;99.90
56044;DHT22;41912;51.022;3.664;2023-01-26T03:30:06;3.20;99.90
56044;DHT22;41912;51.022;3.664;2023-01-26T03:32:32;3.20;99.90
56044;DHT22;41912;51.022;3.664;2023-01-26T03:34:58;3.30;99.90
56044;DHT22;41912;51.022;3.664;2023-01-26T03:37:23;3.30;99.90
56044;DHT22;41912;51.022;3.664;2023-01-26T03:39:49;3.30;99.90
56044;DHT22;41912;51.022;3.664;2023-01-26T03:42:34;3.30;99.90
56044;DHT22;41912;51.022;3.664;2023-01-26T03:45:18;3.30;99.90
56044;DHT22;41912;51.022;3.664;2023-01-26T03:48:07;3.30;99.90
56044;DHT22;41912;51.022;3.664;2023-01-26T03:50:52;3.30;99.90
56044;DHT22;41912;51.022;3.664;2023-01-26T03:53:36;3.30;99.90
56044;DHT22;41912;51.022;3.664;2023-01-26T03:56:21;3.40;99.90
56044;DHT22;41912;51.022;3.664;2023-01-26T03:58:50;3.30;99.90
56044;DHT22;41912;51.022;3.664;2023-01-26T04:01:16;3.30;99.90
56044;DHT22;41912;51.022;3.664;2023-01-26T04:03:48;3.30;99.90
56044;DHT22;41912;51.022;3.664;2023-01-26T04:06:34;3.30;99.90
56044;DHT22;41912;51.022;3.664;2023-01-26T04:09:19;3.30;99.90
56044;DHT22;41912;51.022;3.664;2023-01-26T04:11:45;3.40;99.90
56044;DHT22;41912;51.022;3.664;2023-01-26T04:14:12;3.40;99.90
56044;DHT22;41912;51.022;3.664;2023-01-26T04:16:58;3.40;99.90
56044;DHT22;41912;51.022;3.664;2023-01-26T04:19:43;3.30;99.90
56044;DHT22;41912;51.022;3.664;2023-01-26T04:22:27;3.30;99.90
56044;DHT22;41912;51.022;3.664;2023-01-26T04:24:53;3.30;99.90
56044;DHT22;41912;51.022;3.664;2023-01-26T04:27:18;3.30;99.90
56044;DHT22;41912;51.022;3.664;2023-01-26T04:29:44;3.30;99.90
56044;DHT22;41912;51.022;3.664;2023-01-26T04:32:10;3.30;99.90
56044;DHT22;41912;51.022;3.664;2023-01-26T04:34:35;3.30;99.90
56044;DHT22;41912;51.022;3.664;2023-01-26T04:37:01;3.40;99.90
56044;DHT22;41912;51.022;3.664;2023-01-26T04:39:27;3.30;99.90
56044;DHT22;41912;51.022;3.664;2023-01-26T04:41:52;3.40;99.90
56044;DHT22;41912;51.022;3.664;2023-01-26T04:44:18;3.40;99.90
56044;DHT22;41912;51.022;3.664;2023-01-26T04:46:44;3.40;99.90
56044;DHT22;41912;51.022;3.664;2023-01-26T04:49:11;3.40;99.90
56044;DHT22;41912;51.022;3.664;2023-01-26T04:51:37;3.40;99.90
56044;DHT22;41912;51.022;3.664;2023-01-26T04:54:03;3.40;99.90
56044;DHT22;41912;51.022;3.664;2023-01-26T04:56:31;3.40;99.90
56044;DHT22;41912;51.022;3.664;2023-01-26T04:58:59;3.40;99.90
56044;DHT22;41912;51.022;3.664;2023-01-26T05:01:25;3.40;99.90
56044;DHT22;41912;51.022;3.664;2023-01-26T05:03:51;3.40;99.90
56044;DHT22;41912;51.022;3.664;2023-01-26T05:06:17;3.40;99.90
56044;DHT22;41912;51.022;3.664;2023-01-26T05:08:43;3.40;99.90
56044;DHT22;41912;51.022;3.664;2023-01-26T05:11:09;3.40;99.90
56044;DHT22;41912;51.022;3.664;2023-01-26T05:13:35;3.40;99.90
56044;DHT22;41912;51.022;3.664;2023-01-26T05:16:02;3.40;99.90
56044;DHT22;41912;51.022;3.664;2023-01-26T05:18:28;3.40;99.90
56044;DHT22;41912;51.022;3.664;2023-01-26T05:20:54;3.40;99.90
56044;DHT22;41912;51.022;3.664;2023-01-26T05:23:20;3.40;99.90
56044;DHT22;41912;51.022;3.664;2023-01-26T05:25:46;3.40;99.90
56044;DHT22;41912;51.022;3.664;2023-01-26T05:28:12;3.30;99.90
56044;DHT22;41912;51.022;3.664;2023-01-26T05:30:37;3.30;99.90
56044;DHT22;41912;51.022;3.664;2023-01-26T05:33:05;3.40;99.90
56044;DHT22;41912;51.022;3.664;2023-01-26T05:35:30;3.40;99.90
56044;DHT22;41912;51.022;3.664;2023-01-26T05:37:56;3.40;99.90
56044;DHT22;41912;51.022;3.664;2023-01-26T05:40:22;3.40;99.90
56044;DHT22;41912;51.022;3.664;2023-01-26T05:42:49;3.40;99.90
56044;DHT22;41912;51.022;3.664;2023-01-26T05:45:15;3.40;99.90
56044;DHT22;41912;51.022;3.664;2023-01-26T05:47:42;3.40;99.90
56044;DHT22;41912;51.022;3.664;2023-01-26T05:50:09;3.50;99.90
56044;DHT22;41912;51.022;3.664;2023-01-26T05:52:35;3.50;99.90
56044;DHT22;41912;51.022;3.664;2023-01-26T05:55:02;3.50;99.90
56044;DHT22;41912;51.022;3.664;2023-01-26T05:57:28;3.50;99.90
56044;DHT22;41912;51.022;3.664;2023-01-26T05:59:53;3.50;99.90
56044;DHT22;41912;51.022;3.664;2023-01-26T06:02:19;3.50;99.90
56044;DHT22;41912;51.022;3.664;2023-01-26T06:04:45;3.50;99.90
56044;DHT22;41912;51.022;3.664;2023-01-26T06:07:10;3.50;99.90
56044;DHT22;41912;51.022;3.664;2023-01-26T06:09:38;3.50;99.90
56044;DHT22;41912;51.022;3.664;2023-01-26T06:12:05;3.50;99.90
56044;DHT22;41912;51.022;3.664;2023-01-26T06:14:31;3.50;99.90
56044;DHT22;41912;51.022;3.664;2023-01-26T06:16:56;3.50;99.90
56044;DHT22;41912;51.022;3.664;2023-01-26T06:19:22;3.50;99.90
56044;DHT22;41912;51.022;3.664;2023-01-26T06:21:48;3.50;99.90
56044;DHT22;41912;51.022;3.664;2023-01-26T06:24:13;3.50;99.90
56044;DHT22;41912;51.022;3.664;2023-01-26T06:26:39;3.60;99.90
56044;DHT22;41912;51.022;3.664;2023-01-26T06:29:05;3.60;99.90
56044;DHT22;41912;51.022;3.664;2023-01-26T06:31:30;3.60;99.90
56044;DHT22;41912;51.022;3.664;2023-01-26T06:33:56;3.60;99.90
56044;DHT22;41912;51.022;3.664;2023-01-26T06:36:22;3.60;99.90
56044;DHT22;41912;51.022;3.664;2023-01-26T06:38:49;3.60;99.90
56044;DHT22;41912;51.022;3.664;2023-01-26T06:41:16;3.60;99.90
56044;DHT22;41912;51.022;3.664;2023-01-26T06:43:46;3.60;99.90
56044;DHT22;41912;51.022;3.664;2023-01-26T06:46:12;3.60;99.90
56044;DHT22;41912;51.022;3.664;2023-01-26T06:53:42;3.60;99.90
56044;DHT22;41912;51.022;3.664;2023-01-26T06:56:08;3.60;99.90
56044;DHT22;41912;51.022;3.664;2023-01-26T06:58:33;3.60;99.90
56044;DHT22;41912;51.022;3.664;2023-01-26T07:00:59;3.70;99.90
56044;DHT22;41912;51.022;3.664;2023-01-26T07:03:25;3.70;99.90
56044;DHT22;41912;51.022;3.664;2023-01-26T07:05:51;3.70;99.90
56044;DHT22;41912;51.022;3.664;2023-01-26T07:08:16;3.70;99.90
56044;DHT22;41912;51.022;3.664;2023-01-26T07:10:42;3.70;99.90
56044;DHT22;41912;51.022;3.664;2023-01-26T07:13:08;3.70;99.90
56044;DHT22;41912;51.022;3.664;2023-01-26T07:15:33;3.70;99.90
56044;DHT22;41912;51.022;3.664;2023-01-26T07:17:59;3.70;99.90
56044;DHT22;41912;51.022;3.664;2023-01-26T07:20:26;3.70;99.90
56044;DHT22;41912;51.022;3.664;2023-01-26T07:22:52;3.70;99.90
56044;DHT22;41912;51.022;3.664;2023-01-26T07:25:18;3.70;99.90
56044;DHT22;41912;51.022;3.664;2023-01-26T07:27:43;3.70;99.90
56044;DHT22;41912;51.022;3.664;2023-01-26T07:30:10;3.70;99.90
56044;DHT22;41912;51.022;3.664;2023-01-26T07:32:38;3.70;99.90
56044;DHT22;41912;51.022;3.664;2023-01-26T07:35:05;3.70;99.90
56044;DHT22;41912;51.022;3.664;2023-01-26T07:37:31;3.70;99.90
56044;DHT22;41912;51.022;3.664;2023-01-26T07:39:57;3.70;99.90
56044;DHT22;41912;51.022;3.664;2023-01-26T07:42:22;3.80;99.90
56044;DHT22;41912;51.022;3.664;2023-01-26T07:44:48;3.80;99.90
56044;DHT22;41912;51.022;3.664;2023-01-26T07:47:14;3.80;99.90
56044;DHT22;41912;51.022;3.664;2023-01-26T07:49:40;3.80;99.90
56044;DHT22;41912;51.022;3.664;2023-01-26T07:52:06;3.80;99.90
56044;DHT22;41912;51.022;3.664;2023-01-26T07:54:33;3.90;99.90
56044;DHT22;41912;51.022;3.664;2023-01-26T07:56:59;3.90;99.90
56044;DHT22;41912;51.022;3.664;2023-01-26T07:59:25;3.90;99.90
56044;DHT22;41912;51.022;3.664;2023-01-26T08:01:51;3.90;99.90
56044;DHT22;41912;51.022;3.664;2023-01-26T08:04:17;3.90;99.90
56044;DHT22;41912;51.022;3.664;2023-01-26T08:06:43;4.00;99.90
56044;DHT22;41912;51.022;3.664;2023-01-26T08:09:09;4.00;99.90
56044;DHT22;41912;51.022;3.664;2023-01-26T08:11:35;4.00;99.90
56044;DHT22;41912;51.022;3.664;2023-01-26T08:14:01;4.10;99.90
56044;DHT22;41912;51.022;3.664;2023-01-26T08:16:26;4.10;99.90
56044;DHT22;41912;51.022;3.664;2023-01-26T08:18:52;4.10;99.90
56044;DHT22;41912;51.022;3.664;2023-01-26T08:21:18;4.10;99.90
56044;DHT22;41912;51.022;3.664;2023-01-26T08:23:49;4.20;99.90
56044;DHT22;41912;51.022;3.664;2023-01-26T08:26:15;4.30;99.90
56044;DHT22;41912;51.022;3.664;2023-01-26T08:28:42;4.30;99.90
56044;DHT22;41912;51.022;3.664;2023-01-26T08:31:16;4.30;99.90
56044;DHT22;41912;51.022;3.664;2023-01-26T08:33:46;4.40;99.90
56044;DHT22;41912;51.022;3.664;2023-01-26T08:36:13;4.40;99.90
56044;DHT22;41912;51.022;3.664;2023-01-26T08:38:40;4.40;99.90
56044;DHT22;41912;51.022;3.664;2023-01-26T08:41:06;4.50;99.90
56044;DHT22;41912;51.022;3.664;2023-01-26T08:43:32;4.50;99.90
56044;DHT22;41912;51.022;3.664;2023-01-26T08:45:58;4.50;99.90
56044;DHT22;41912;51.022;3.664;2023-01-26T08:48:25;4.60;99.90
56044;DHT22;41912;51.022;3.664;2023-01-26T08:50:54;4.60;99.90
56044;DHT22;41912;51.022;3.664;2023-01-26T08:53:21;4.70;99.90
56044;DHT22;41912;51.022;3.664;2023-01-26T08:55:47;4.70;99.90
56044;DHT22;41912;51.022;3.664;2023-01-26T08:58:12;4.80;99.90
56044;DHT22;41912;51.022;3.664;2023-01-26T09:00:38;4.90;99.90
56044;DHT22;41912;51.022;3.664;2023-01-26T09:03:04;4.90;99.90
56044;DHT22;41912;51.022;3.664;2023-01-26T09:05:32;4.90;99.90
56044;DHT22;41912;51.022;3.664;2023-01-26T09:07:58;5.00;99.90
56044;DHT22;41912;51.022;3.664;2023-01-26T09:10:24;5.10;99.90
56044;DHT22;41912;51.022;3.664;2023-01-26T09:12:50;5.10;99.90
56044;DHT22;41912;51.022;3.664;2023-01-26T09:15:16;5.20;99.90
56044;DHT22;41912;51.022;3.664;2023-01-26T09:17:41;5.20;99.90
56044;DHT22;41912;51.022;3.664;2023-01-26T09:20:10;5.20;99.90
56044;DHT22;41912;51.022;3.664;2023-01-26T09:22:36;5.30;99.90
56044;DHT22;41912;51.022;3.664;2023-01-26T09:25:02;5.30;99.90
56044;DHT22;41912;51.022;3.664;2023-01-26T09:27:28;5.30;99.90
56044;DHT22;41912;51.022;3.664;2023-01-26T09:29:53;5.40;99.90
56044;DHT22;41912;51.022;3.664;2023-01-26T09:32:20;5.50;99.90
56044;DHT22;41912;51.022;3.664;2023-01-26T09:34:46;5.50;99.90
56044;DHT22;41912;51.022;3.664;2023-01-26T09:37:12;5.60;99.90
56044;DHT22;41912;51.022;3.664;2023-01-26T09:39:38;5.60;99.90
56044;DHT22;41912;51.022;3.664;2023-01-26T09:42:30;5.60;99.90
56044;DHT22;41912;51.022;3.664;2023-01-26T09:45:30;5.70;99.90
56044;DHT22;41912;51.022;3.664;2023-01-26T09:51:14;5.80;99.90
56044;DHT22;41912;51.022;3.664;2023-01-26T09:53:18;5.80;99.90
56044;DHT22;41912;51.022;3.664;2023-01-26T09:55:45;5.90;99.90
56044;DHT22;41912;51.022;3.664;2023-01-26T09:58:41;5.90;99.90
56044;DHT22;41912;51.022;3.664;2023-01-26T10:01:17;6.00;99.90
56044;DHT22;41912;51.022;3.664;2023-01-26T10:03:57;6.10;99.90
56044;DHT22;41912;51.022;3.664;2023-01-26T10:06:27;6.10;99.90
56044;DHT22;41912;51.022;3.664;2023-01-26T10:09:15;6.10;99.90
56044;DHT22;41912;51.022;3.664;2023-01-26T10:11:48;6.20;99.90
56044;DHT22;41912;51.022;3.664;2023-01-26T10:14:35;6.20;99.90
56044;DHT22;41912;51.022;3.664;2023-01-26T10:17:07;6.20;99.90
56044;DHT22;41912;51.022;3.664;2023-01-26T10:19:44;6.30;99.90
56044;DHT22;41912;51.022;3.664;2023-01-26T10:22:29;6.30;99.90
56044;DHT22;41912;51.022;3.664;2023-01-26T10:24:56;6.40;99.90
56044;DHT22;41912;51.022;3.664;2023-01-26T10:27:23;6.40;99.90
56044;DHT22;41912;51.022;3.664;2023-01-26T10:29:49;6.50;99.90
56044;DHT22;41912;51.022;3.664;2023-01-26T10:32:17;6.50;99.90
56044;DHT22;41912;51.022;3.664;2023-01-26T10:34:44;6.50;99.90
56044;DHT22;41912;51.022;3.664;2023-01-26T10:37:32;6.60;99.90
56044;DHT22;41912;51.022;3.664;2023-01-26T10:39:59;6.60;99.90
56044;DHT22;41912;51.022;3.664;2023-01-26T10:42:31;6.60;99.90
56044;DHT22;41912;51.022;3.664;2023-01-26T10:44:58;6.70;99.90
56044;DHT22;41912;51.022;3.664;2023-01-26T10:47:26;6.70;99.90
56044;DHT22;41912;51.022;3.664;2023-01-26T10:50:14;6.70;99.90
56044;DHT22;41912;51.022;3.664;2023-01-26T10:52:56;6.70;99.90
56044;DHT22;41912;51.022;3.664;2023-01-26T10:55:22;6.70;99.90
56044;DHT22;41912;51.022;3.664;2023-01-26T10:57:48;6.70;99.90
56044;DHT22;41912;51.022;3.664;2023-01-26T11:00:25;6.70;99.90
56044;DHT22;41912;51.022;3.664;2023-01-26T11:02:57;6.80;99.90
56044;DHT22;41912;51.022;3.664;2023-01-26T11:05:25;6.80;99.90
56044;DHT22;41912;51.022;3.664;2023-01-26T11:07:53;6.80;99.90
56044;DHT22;41912;51.022;3.664;2023-01-26T11:10:31;6.80;99.90
56044;DHT22;41912;51.022;3.664;2023-01-26T11:13:17;6.80;99.90
56044;DHT22;41912;51.022;3.664;2023-01-26T11:16:18;6.80;99.90
56044;DHT22;41912;51.022;3.664;2023-01-26T11:19:08;6.80;99.90
56044;DHT22;41912;51.022;3.664;2023-01-26T11:24:32;6.90;99.90
56044;DHT22;41912;51.022;3.664;2023-01-26T11:33:10;6.90;99.90
56044;DHT22;41912;51.022;3.664;2023-01-26T11:35:49;6.90;99.90
56044;DHT22;41912;51.022;3.664;2023-01-26T11:38:39;7.00;99.90
56044;DHT22;41912;51.022;3.664;2023-01-26T11:57:02;7.30;99.90
56044;DHT22;41912;51.022;3.664;2023-01-26T12:00:39;7.30;99.90
56044;DHT22;41912;51.022;3.664;2023-01-26T12:02:34;7.30;99.90
56044;DHT22;41912;51.022;3.664;2023-01-26T12:05:11;7.40;99.90
56044;DHT22;41912;51.022;3.664;2023-01-26T12:13:31;7.40;99.90
56044;DHT22;41912;51.022;3.664;2023-01-26T12:16:06;7.50;99.90
56044;DHT22;41912;51.022;3.664;2023-01-26T12:18:38;7.40;99.90
56044;DHT22;41912;51.022;3.664;2023-01-26T12:21:09;7.50;99.90
56044;DHT22;41912;51.022;3.664;2023-01-26T12:26:14;7.50;99.90
56044;DHT22;41912;51.022;3.664;2023-01-26T12:33:43;7.60;99.90
56044;DHT22;41912;51.022;3.664;2023-01-26T12:36:18;7.60;99.90
56044;DHT22;41912;51.022;3.664;2023-01-26T12:39:12;7.70;99.90
56044;DHT22;41912;51.022;3.664;2023-01-26T12:47:08;7.70;99.90
56044;DHT22;41912;51.022;3.664;2023-01-26T12:50:03;7.70;99.90
56044;DHT22;41912;51.022;3.664;2023-01-26T12:52:47;7.80;99.90
56044;DHT22;41912;51.022;3.664;2023-01-26T12:55:25;7.80;99.90
56044;DHT22;41912;51.022;3.664;2023-01-26T12:57:57;7.80;99.90
56044;DHT22;41912;51.022;3.664;2023-01-26T13:00:30;7.80;99.90
56044;DHT22;41912;51.022;3.664;2023-01-26T13:05:34;7.90;99.90
56044;DHT22;41912;51.022;3.664;2023-01-26T13:10:58;7.90;99.90
56044;DHT22;41912;51.022;3.664;2023-01-26T13:13:25;7.90;99.90
56044;DHT22;41912;51.022;3.664;2023-01-26T13:18:48;8.10;99.90
56044;DHT22;41912;51.022;3.664;2023-01-26T13:26:52;8.20;99.90
56044;DHT22;41912;51.022;3.664;2023-01-26T13:34:36;8.50;99.90
56044;DHT22;41912;51.022;3.664;2023-01-26T13:37:52;8.50;99.90
56044;DHT22;41912;51.022;3.664;2023-01-26T13:40:00;8.60;99.90
56044;DHT22;41912;51.022;3.664;2023-01-26T13:42:37;8.70;99.90
56044;DHT22;41912;51.022;3.664;2023-01-26T13:45:31;8.70;99.90
56044;DHT22;41912;51.022;3.664;2023-01-26T13:47:59;8.70;99.90
56044;DHT22;41912;51.022;3.664;2023-01-26T13:50:34;8.70;99.90
56044;DHT22;41912;51.022;3.664;2023-01-26T13:53:21;8.70;99.90
56044;DHT22;41912;51.022;3.664;2023-01-26T13:55:51;8.60;99.90
56044;DHT22;41912;51.022;3.664;2023-01-26T13:58:21;8.60;99.90
56044;DHT22;41912;51.022;3.664;2023-01-26T14:03:26;8.60;99.90
56044;DHT22;41912;51.022;3.664;2023-01-26T14:06:25;8.60;99.90
56044;DHT22;41912;51.022;3.664;2023-01-26T14:08:55;8.60;99.90
56044;DHT22;41912;51.022;3.664;2023-01-26T14:11:23;8.60;99.90
56044;DHT22;41912;51.022;3.664;2023-01-26T14:13:55;8.60;99.90
56044;DHT22;41912;51.022;3.664;2023-01-26T14:16:33;8.60;99.90
56044;DHT22;41912;51.022;3.664;2023-01-26T14:19:26;8.60;99.90
56044;DHT22;41912;51.022;3.664;2023-01-26T14:21:54;8.70;99.90
56044;DHT22;41912;51.022;3.664;2023-01-26T14:24:35;8.70;99.90
56044;DHT22;41912;51.022;3.664;2023-01-26T14:27:05;8.70;99.90
56044;DHT22;41912;51.022;3.664;2023-01-26T14:29:36;8.60;99.90
56044;DHT22;41912;51.022;3.664;2023-01-26T14:32:03;8.70;99.90
56044;DHT22;41912;51.022;3.664;2023-01-26T14:34:30;8.60;99.90
56044;DHT22;41912;51.022;3.664;2023-01-26T14:37:13;8.60;99.90
56044;DHT22;41912;51.022;3.664;2023-01-26T14:39:40;8.60;99.90
56044;DHT22;41912;51.022;3.664;2023-01-26T14:42:09;8.60;99.90
56044;DHT22;41912;51.022;3.664;2023-01-26T14:44:38;8.60;99.90
56044;DHT22;41912;51.022;3.664;2023-01-26T14:47:23;8.60;99.90
56044;DHT22;41912;51.022;3.664;2023-01-26T14:50:14;8.70;99.90
56044;DHT22;41912;51.022;3.664;2023-01-26T14:52:44;8.70;99.90
56044;DHT22;41912;51.022;3.664;2023-01-26T14:55:30;8.70;99.90
56044;DHT22;41912;51.022;3.664;2023-01-26T14:57:58;8.70;99.90
56044;DHT22;41912;51.022;3.664;2023-01-26T15:00:36;8.60;99.90
56044;DHT22;41912;51.022;3.664;2023-01-26T15:03:12;8.60;99.90
56044;DHT22;41912;51.022;3.664;2023-01-26T15:05:39;8.60;99.90
56044;DHT22;41912;51.022;3.664;2023-01-26T15:08:23;8.60;99.90
56044;DHT22;41912;51.022;3.664;2023-01-26T15:10:54;8.60;99.90
56044;DHT22;41912;51.022;3.664;2023-01-26T15:13:40;8.60;99.90
56044;DHT22;41912;51.022;3.664;2023-01-26T15:18:34;8.60;99.90
56044;DHT22;41912;51.022;3.664;2023-01-26T15:23:48;8.60;99.90
56044;DHT22;41912;51.022;3.664;2023-01-26T15:28:39;8.50;99.90
56044;DHT22;41912;51.022;3.664;2023-01-26T15:31:06;8.60;99.90
56044;DHT22;41912;51.022;3.664;2023-01-26T15:36:34;8.60;99.90
56044;DHT22;41912;51.022;3.664;2023-01-26T15:39:08;8.60;99.90
56044;DHT22;41912;51.022;3.664;2023-01-26T15:41:35;8.50;99.90
56044;DHT22;41912;51.022;3.664;2023-01-26T15:44:01;8.50;99.90
56044;DHT22;41912;51.022;3.664;2023-01-26T15:46:26;8.50;99.90
56044;DHT22;41912;51.022;3.664;2023-01-26T15:48:52;8.50;99.90
56044;DHT22;41912;51.022;3.664;2023-01-26T15:51:18;8.50;99.90
56044;DHT22;41912;51.022;3.664;2023-01-26T15:53:59;8.50;99.90
56044;DHT22;41912;51.022;3.664;2023-01-26T15:56:24;8.50;99.90
56044;DHT22;41912;51.022;3.664;2023-01-26T15:58:50;8.50;99.90
56044;DHT22;41912;51.022;3.664;2023-01-26T16:03:55;8.50;99.90
56044;DHT22;41912;51.022;3.664;2023-01-26T16:08:48;8.50;99.90
56044;DHT22;41912;51.022;3.664;2023-01-26T16:11:14;8.50;99.90
56044;DHT22;41912;51.022;3.664;2023-01-26T16:13:39;8.50;99.90
56044;DHT22;41912;51.022;3.664;2023-01-26T16:16:08;8.50;99.90
56044;DHT22;41912;51.022;3.664;2023-01-26T16:18:35;8.50;99.90
56044;DHT22;41912;51.022;3.664;2023-01-26T16:21:00;8.50;99.90
56044;DHT22;41912;51.022;3.664;2023-01-26T16:25:52;8.50;99.90
56044;DHT22;41912;51.022;3.664;2023-01-26T16:28:18;8.40;99.90
56044;DHT22;41912;51.022;3.664;2023-01-26T16:30:45;8.50;99.90
56044;DHT22;41912;51.022;3.664;2023-01-26T16:33:13;8.40;99.90
56044;DHT22;41912;51.022;3.664;2023-01-26T16:35:39;8.40;99.90
56044;DHT22;41912;51.022;3.664;2023-01-26T16:38:05;8.40;99.90
56044;DHT22;41912;51.022;3.664;2023-01-26T16:40:40;8.40;99.90
56044;DHT22;41912;51.022;3.664;2023-01-26T16:43:17;8.40;99.90
56044;DHT22;41912;51.022;3.664;2023-01-26T16:45:44;8.40;99.90
56044;DHT22;41912;51.022;3.664;2023-01-26T16:48:12;8.30;99.90
56044;DHT22;41912;51.022;3.664;2023-01-26T16:50:38;8.30;99.90
56044;DHT22;41912;51.022;3.664;2023-01-26T16:53:23;8.30;99.90
56044;DHT22;41912;51.022;3.664;2023-01-26T16:55:50;8.30;99.90
56044;DHT22;41912;51.022;3.664;2023-01-26T16:58:16;8.30;99.90
56044;DHT22;41912;51.022;3.664;2023-01-26T17:00:42;8.20;99.90
56044;DHT22;41912;51.022;3.664;2023-01-26T17:03:14;8.20;99.90
56044;DHT22;41912;51.022;3.664;2023-01-26T17:05:40;8.20;99.90
56044;DHT22;41912;51.022;3.664;2023-01-26T17:08:06;8.20;99.90
56044;DHT22;41912;51.022;3.664;2023-01-26T17:10:32;8.20;99.90
56044;DHT22;41912;51.022;3.664;2023-01-26T17:12:58;8.20;99.90
56044;DHT22;41912;51.022;3.664;2023-01-26T17:15:24;8.20;99.90
56044;DHT22;41912;51.022;3.664;2023-01-26T17:17:50;8.10;99.90
56044;DHT22;41912;51.022;3.664;2023-01-26T17:20:16;8.10;99.90
56044;DHT22;41912;51.022;3.664;2023-01-26T17:22:42;8.10;99.90
56044;DHT22;41912;51.022;3.664;2023-01-26T17:25:08;8.10;99.90
56044;DHT22;41912;51.022;3.664;2023-01-26T17:27:35;8.10;99.90
56044;DHT22;41912;51.022;3.664;2023-01-26T17:30:01;8.10;99.90
56044;DHT22;41912;51.022;3.664;2023-01-26T17:32:27;8.10;99.90
56044;DHT22;41912;51.022;3.664;2023-01-26T17:34:53;8.10;99.90
56044;DHT22;41912;51.022;3.664;2023-01-26T17:37:24;8.10;99.90
56044;DHT22;41912;51.022;3.664;2023-01-26T17:39:50;8.10;99.90
56044;DHT22;41912;51.022;3.664;2023-01-26T17:42:17;8.10;99.90
56044;DHT22;41912;51.022;3.664;2023-01-26T17:44:43;8.10;99.90
56044;DHT22;41912;51.022;3.664;2023-01-26T17:47:09;8.10;99.90